sensor_id;sensor_type;location;lat;lon;timestamp;pressure;altitude;pressure_sealevel;temperature;humidity
77975;BME280;67164;51.202;0.278;2024-02-28T00:01:49;101693.07;;;23.01;33.80
77975;BME280;67164;51.202;0.278;2024-02-28T00:04:12;101695.16;;;23.03;33.76
77975;BME280;67164;51.202;0.278;2024-02-28T00:06:38;101693.20;;;23.18;33.94
77975;BME280;67164;51.202;0.278;2024-02-28T00:09:04;101689.85;;;23.18;33.73
77975;BME280;67164;51.202;0.278;2024-02-28T00:11:30;101684.75;;;23.39;33.90
77975;BME280;67164;51.202;0.278;2024-02-28T00:13:55;101682.33;;;23.30;33.90
77975;BME280;67164;51.202;0.278;2024-02-28T00:16:21;101684.92;;;23.30;33.85
77975;BME280;67164;51.202;0.278;2024-02-28T00:18:47;101686.04;;;22.82;33.89
77975;BME280;67164;51.202;0.278;2024-02-28T00:21:13;101690.12;;;22.78;33.90
77975;BME280;67164;51.202;0.278;2024-02-28T00:23:39;101691.43;;;22.78;33.90
77975;BME280;67164;51.202;0.278;2024-02-28T00:26:04;101693.76;;;23.06;34.08
77975;BME280;67164;51.202;0.278;2024-02-28T00:28:30;101692.69;;;22.65;33.97
77975;BME280;67164;51.202;0.278;2024-02-28T00:30:56;101691.70;;;23.08;34.04
77975;BME280;67164;51.202;0.278;2024-02-28T00:33:22;101692.55;;;23.05;34.02
77975;BME280;67164;51.202;0.278;2024-02-28T00:35:48;101690.53;;;22.95;34.10
77975;BME280;67164;51.202;0.278;2024-02-28T00:38:14;101689.18;;;22.99;34.06
77975;BME280;67164;51.202;0.278;2024-02-28T00:40:39;101694.10;;;22.98;34.07
77975;BME280;67164;51.202;0.278;2024-02-28T00:43:05;101698.94;;;22.93;34.08
77975;BME280;67164;51.202;0.278;2024-02-28T00:45:31;101698.93;;;22.86;34.18
77975;BME280;67164;51.202;0.278;2024-02-28T00:47:57;101695.77;;;22.78;34.29
77975;BME280;67164;51.202;0.278;2024-02-28T00:50:23;101689.32;;;22.66;34.39
77975;BME280;67164;51.202;0.278;2024-02-28T00:52:48;101691.93;;;22.63;34.41
77975;BME280;67164;51.202;0.278;2024-02-28T00:55:14;101698.78;;;22.70;34.32
77975;BME280;67164;51.202;0.278;2024-02-28T00:57:40;101700.78;;;22.84;34.38
77975;BME280;67164;51.202;0.278;2024-02-28T01:00:07;101700.80;;;22.52;34.52
77975;BME280;67164;51.202;0.278;2024-02-28T01:02:32;101695.07;;;22.46;34.58
77975;BME280;67164;51.202;0.278;2024-02-28T01:04:58;101692.34;;;22.69;34.54
77975;BME280;67164;51.202;0.278;2024-02-28T01:07:23;101693.88;;;22.47;34.53
77975;BME280;67164;51.202;0.278;2024-02-28T01:09:49;101699.41;;;22.41;34.50
77975;BME280;67164;51.202;0.278;2024-02-28T01:12:15;101697.17;;;22.45;34.49
77975;BME280;67164;51.202;0.278;2024-02-28T01:14:41;101698.87;;;22.38;34.54
77975;BME280;67164;51.202;0.278;2024-02-28T01:17:07;101699.97;;;22.36;34.64
77975;BME280;67164;51.202;0.278;2024-02-28T01:19:32;101694.82;;;22.34;34.59
77975;BME280;67164;51.202;0.278;2024-02-28T01:21:58;101690.56;;;22.35;34.56
77975;BME280;67164;51.202;0.278;2024-02-28T01:24:24;101686.54;;;22.61;34.49
77975;BME280;67164;51.202;0.278;2024-02-28T01:26:50;101689.07;;;22.29;34.59
77975;BME280;67164;51.202;0.278;2024-02-28T01:29:16;101687.69;;;22.29;34.54
77975;BME280;67164;51.202;0.278;2024-02-28T01:31:42;101686.56;;;22.28;34.54
77975;BME280;67164;51.202;0.278;2024-02-28T01:34:07;101684.76;;;22.49;34.52
77975;BME280;67164;51.202;0.278;2024-02-28T01:36:33;101683.69;;;22.20;34.64
77975;BME280;67164;51.202;0.278;2024-02-28T01:38:59;101679.99;;;22.25;34.59
77975;BME280;67164;51.202;0.278;2024-02-28T01:41:25;101678.93;;;22.22;34.61
77975;BME280;67164;51.202;0.278;2024-02-28T01:43:50;101684.31;;;22.44;34.61
77975;BME280;67164;51.202;0.278;2024-02-28T01:46:22;101684.78;;;22.16;34.63
77975;BME280;67164;51.202;0.278;2024-02-28T01:48:42;101683.99;;;22.14;34.60
77975;BME280;67164;51.202;0.278;2024-02-28T01:51:08;101685.41;;;22.35;34.60
77975;BME280;67164;51.202;0.278;2024-02-28T01:53:34;101683.79;;;22.62;34.57
77975;BME280;67164;51.202;0.278;2024-02-28T01:55:59;101677.07;;;22.11;34.57
77975;BME280;67164;51.202;0.278;2024-02-28T01:58:25;101678.44;;;22.33;34.57
77975;BME280;67164;51.202;0.278;2024-02-28T02:00:52;101676.50;;;22.32;34.58
77975;BME280;67164;51.202;0.278;2024-02-28T02:03:17;101681.63;;;22.31;34.57
77975;BME280;67164;51.202;0.278;2024-02-28T02:05:43;101678.03;;;22.07;34.56
77975;BME280;67164;51.202;0.278;2024-02-28T02:08:09;101674.50;;;22.25;34.64
77975;BME280;67164;51.202;0.278;2024-02-28T02:10:34;101678.01;;;22.43;34.69
77975;BME280;67164;51.202;0.278;2024-02-28T02:13:04;101674.10;;;22.21;34.61
77975;BME280;67164;51.202;0.278;2024-02-28T02:15:26;101670.27;;;22.21;34.63
77975;BME280;67164;51.202;0.278;2024-02-28T02:17:51;101672.63;;;22.42;34.66
77975;BME280;67164;51.202;0.278;2024-02-28T02:20:20;101682.51;;;22.15;34.70
77975;BME280;67164;51.202;0.278;2024-02-28T02:22:43;101680.36;;;22.17;34.62
77975;BME280;67164;51.202;0.278;2024-02-28T02:25:10;101676.68;;;22.41;34.60
77975;BME280;67164;51.202;0.278;2024-02-28T02:27:34;101676.96;;;22.14;34.62
77975;BME280;67164;51.202;0.278;2024-02-28T02:30:00;101676.77;;;22.12;34.65
77975;BME280;67164;51.202;0.278;2024-02-28T02:32:26;101678.09;;;22.05;34.70
77975;BME280;67164;51.202;0.278;2024-02-28T02:34:52;101680.90;;;22.33;34.63
77975;BME280;67164;51.202;0.278;2024-02-28T02:37:18;101677.96;;;22.06;34.66
77975;BME280;67164;51.202;0.278;2024-02-28T02:39:44;101677.18;;;22.05;34.65
77975;BME280;67164;51.202;0.278;2024-02-28T02:42:10;101673.09;;;22.03;34.71
77975;BME280;67164;51.202;0.278;2024-02-28T02:44:35;101669.95;;;21.99;34.70
77975;BME280;67164;51.202;0.278;2024-02-28T02:47:01;101665.76;;;22.04;34.66
77975;BME280;67164;51.202;0.278;2024-02-28T02:49:27;101662.02;;;21.99;34.70
77975;BME280;67164;51.202;0.278;2024-02-28T02:51:53;101656.65;;;21.97;34.71
77975;BME280;67164;51.202;0.278;2024-02-28T02:54:18;101658.61;;;21.67;34.77
77975;BME280;67164;51.202;0.278;2024-02-28T02:56:44;101652.34;;;21.90;34.81
77975;BME280;67164;51.202;0.278;2024-02-28T02:59:10;101653.26;;;22.14;34.79
77975;BME280;67164;51.202;0.278;2024-02-28T03:01:36;101653.29;;;22.07;34.79
77975;BME280;67164;51.202;0.278;2024-02-28T03:04:02;101651.64;;;22.07;34.81
77975;BME280;67164;51.202;0.278;2024-02-28T03:06:27;101653.01;;;22.02;34.87
77975;BME280;67164;51.202;0.278;2024-02-28T03:08:53;101650.03;;;21.76;34.87
77975;BME280;67164;51.202;0.278;2024-02-28T03:11:19;101649.88;;;21.97;34.90
77975;BME280;67164;51.202;0.278;2024-02-28T03:13:45;101655.33;;;21.97;34.90
77975;BME280;67164;51.202;0.278;2024-02-28T03:16:11;101658.88;;;21.68;34.97
77975;BME280;67164;51.202;0.278;2024-02-28T03:18:37;101658.62;;;21.92;34.99
77975;BME280;67164;51.202;0.278;2024-02-28T03:21:03;101658.39;;;21.91;34.97
77975;BME280;67164;51.202;0.278;2024-02-28T03:23:28;101664.93;;;21.86;35.00
77975;BME280;67164;51.202;0.278;2024-02-28T03:25:54;101665.42;;;21.84;35.00
77975;BME280;67164;51.202;0.278;2024-02-28T03:28:20;101664.05;;;21.84;34.98
77975;BME280;67164;51.202;0.278;2024-02-28T03:30:46;101659.49;;;21.84;34.99
77975;BME280;67164;51.202;0.278;2024-02-28T03:33:11;101655.86;;;21.75;35.10
77975;BME280;67164;51.202;0.278;2024-02-28T03:35:37;101657.14;;;21.50;35.08
77975;BME280;67164;51.202;0.278;2024-02-28T03:38:03;101662.03;;;21.78;35.03
77975;BME280;67164;51.202;0.278;2024-02-28T03:40:29;101660.19;;;21.50;35.02
77975;BME280;67164;51.202;0.278;2024-02-28T03:42:55;101663.38;;;21.75;35.04
77975;BME280;67164;51.202;0.278;2024-02-28T03:45:27;101662.07;;;21.73;35.07
77975;BME280;67164;51.202;0.278;2024-02-28T03:47:46;101662.51;;;21.44;35.10
77975;BME280;67164;51.202;0.278;2024-02-28T03:50:12;101667.92;;;21.44;35.10
77975;BME280;67164;51.202;0.278;2024-02-28T03:52:39;101667.19;;;21.66;35.14
77975;BME280;67164;51.202;0.278;2024-02-28T03:55:04;101663.44;;;21.64;35.12
77975;BME280;67164;51.202;0.278;2024-02-28T03:57:28;101665.56;;;21.53;35.23
77975;BME280;67164;51.202;0.278;2024-02-28T03:59:54;101666.35;;;21.56;35.18
77975;BME280;67164;51.202;0.278;2024-02-28T04:02:20;101669.98;;;21.57;35.18
77975;BME280;67164;51.202;0.278;2024-02-28T04:04:46;101665.02;;;21.55;35.17
77975;BME280;67164;51.202;0.278;2024-02-28T04:07:12;101661.80;;;21.53;35.16
77975;BME280;67164;51.202;0.278;2024-02-28T04:09:38;101664.98;;;21.54;35.13
77975;BME280;67164;51.202;0.278;2024-02-28T04:12:04;101674.20;;;21.29;35.15
77975;BME280;67164;51.202;0.278;2024-02-28T04:14:29;101675.39;;;21.53;35.15
77975;BME280;67164;51.202;0.278;2024-02-28T04:16:55;101672.13;;;21.51;35.17
77975;BME280;67164;51.202;0.278;2024-02-28T04:19:21;101669.44;;;21.28;35.16
77975;BME280;67164;51.202;0.278;2024-02-28T04:21:47;101670.56;;;21.71;35.15
77975;BME280;67164;51.202;0.278;2024-02-28T04:24:13;101671.63;;;21.23;35.17
77975;BME280;67164;51.202;0.278;2024-02-28T04:26:38;101672.86;;;21.45;35.15
77975;BME280;67164;51.202;0.278;2024-02-28T04:29:04;101668.97;;;21.45;35.15
77975;BME280;67164;51.202;0.278;2024-02-28T04:31:30;101667.25;;;21.34;34.98
77975;BME280;67164;51.202;0.278;2024-02-28T04:33:56;101669.51;;;21.56;35.02
77975;BME280;67164;51.202;0.278;2024-02-28T04:36:22;101668.53;;;21.30;35.06
77975;BME280;67164;51.202;0.278;2024-02-28T04:38:48;101666.26;;;21.52;35.09
77975;BME280;67164;51.202;0.278;2024-02-28T04:41:13;101665.25;;;21.25;35.03
77975;BME280;67164;51.202;0.278;2024-02-28T04:43:40;101669.07;;;21.46;35.10
77975;BME280;67164;51.202;0.278;2024-02-28T04:46:05;101673.17;;;21.40;35.16
77975;BME280;67164;51.202;0.278;2024-02-28T04:48:31;101667.24;;;21.87;35.13
77975;BME280;67164;51.202;0.278;2024-02-28T04:50:57;101662.83;;;21.38;35.16
77975;BME280;67164;51.202;0.278;2024-02-28T04:53:22;101671.13;;;21.28;35.32
77975;BME280;67164;51.202;0.278;2024-02-28T04:55:48;101677.59;;;21.30;35.32
77975;BME280;67164;51.202;0.278;2024-02-28T04:58:14;101671.79;;;21.28;35.33
77975;BME280;67164;51.202;0.278;2024-02-28T05:00:40;101668.97;;;21.33;35.25
77975;BME280;67164;51.202;0.278;2024-02-28T05:03:06;101671.27;;;21.24;35.30
77975;BME280;67164;51.202;0.278;2024-02-28T05:05:31;101662.90;;;21.30;35.30
77975;BME280;67164;51.202;0.278;2024-02-28T05:07:57;101659.93;;;21.27;35.34
77975;BME280;67164;51.202;0.278;2024-02-28T05:10:23;101656.20;;;21.31;35.29
77975;BME280;67164;51.202;0.278;2024-02-28T05:12:49;101644.91;;;21.25;35.38
77975;BME280;67164;51.202;0.278;2024-02-28T05:15:15;101643.13;;;21.28;35.33
77975;BME280;67164;51.202;0.278;2024-02-28T05:17:41;101647.57;;;21.19;35.40
77975;BME280;67164;51.202;0.278;2024-02-28T05:20:08;101650.70;;;21.22;35.35
77975;BME280;67164;51.202;0.278;2024-02-28T05:22:32;101645.59;;;21.47;35.31
77975;BME280;67164;51.202;0.278;2024-02-28T05:24:58;101640.64;;;21.21;35.33
77975;BME280;67164;51.202;0.278;2024-02-28T05:27:24;101641.36;;;21.39;35.42
77975;BME280;67164;51.202;0.278;2024-02-28T05:29:50;101639.19;;;21.46;35.43
77975;BME280;67164;51.202;0.278;2024-02-28T05:32:15;101642.60;;;21.19;35.40
77975;BME280;67164;51.202;0.278;2024-02-28T05:34:41;101645.27;;;21.26;35.32
77975;BME280;67164;51.202;0.278;2024-02-28T05:37:07;101643.02;;;21.19;35.44
77975;BME280;67164;51.202;0.278;2024-02-28T05:39:33;101644.80;;;21.10;35.54
77975;BME280;67164;51.202;0.278;2024-02-28T05:41:59;101642.44;;;21.17;35.48
77975;BME280;67164;51.202;0.278;2024-02-28T05:44:25;101636.53;;;21.48;35.39
77975;BME280;67164;51.202;0.278;2024-02-28T05:46:50;101637.74;;;21.15;35.48
77975;BME280;67164;51.202;0.278;2024-02-28T05:49:16;101632.97;;;21.15;35.45
77975;BME280;67164;51.202;0.278;2024-02-28T05:51:42;101634.95;;;21.35;35.49
77975;BME280;67164;51.202;0.278;2024-02-28T05:54:08;101645.64;;;21.45;35.37
77975;BME280;67164;51.202;0.278;2024-02-28T05:56:34;101651.22;;;21.04;35.55
77975;BME280;67164;51.202;0.278;2024-02-28T05:58:59;101647.91;;;21.18;35.40
77975;BME280;67164;51.202;0.278;2024-02-28T06:01:25;101646.80;;;21.08;35.53
77975;BME280;67164;51.202;0.278;2024-02-28T06:03:51;101644.31;;;21.05;35.53
77975;BME280;67164;51.202;0.278;2024-02-28T06:06:17;101634.62;;;21.20;35.36
77975;BME280;67164;51.202;0.278;2024-02-28T06:08:43;101627.79;;;21.61;35.42
77975;BME280;67164;51.202;0.278;2024-02-28T06:11:09;101625.20;;;21.33;35.46
77975;BME280;67164;51.202;0.278;2024-02-28T06:13:34;101626.53;;;21.32;35.49
77975;BME280;67164;51.202;0.278;2024-02-28T06:16:00;101629.15;;;21.08;35.46
77975;BME280;67164;51.202;0.278;2024-02-28T06:18:26;101634.57;;;21.06;35.48
77975;BME280;67164;51.202;0.278;2024-02-28T06:20:52;101635.16;;;21.39;35.38
77975;BME280;67164;51.202;0.278;2024-02-28T06:23:18;101629.16;;;20.94;35.67
77975;BME280;67164;51.202;0.278;2024-02-28T06:25:43;101631.25;;;20.99;35.55
77975;BME280;67164;51.202;0.278;2024-02-28T06:28:10;101632.15;;;21.02;35.52
77975;BME280;67164;51.202;0.278;2024-02-28T06:30:35;101632.70;;;21.24;35.26
77975;BME280;67164;51.202;0.278;2024-02-28T06:33:01;101626.34;;;21.62;35.34
77975;BME280;67164;51.202;0.278;2024-02-28T06:35:27;101619.44;;;21.19;35.29
77975;BME280;67164;51.202;0.278;2024-02-28T06:37:53;101620.98;;;21.44;35.21
77975;BME280;67164;51.202;0.278;2024-02-28T06:40:19;101631.48;;;21.02;35.46
77975;BME280;67164;51.202;0.278;2024-02-28T06:42:44;101631.03;;;21.08;35.38
77975;BME280;67164;51.202;0.278;2024-02-28T06:45:11;101633.13;;;20.85;35.66
77975;BME280;67164;51.202;0.278;2024-02-28T06:47:36;101635.39;;;21.18;35.51
77975;BME280;67164;51.202;0.278;2024-02-28T06:50:02;101631.83;;;21.35;35.65
77975;BME280;67164;51.202;0.278;2024-02-28T06:52:28;101630.13;;;21.00;35.48
77975;BME280;67164;51.202;0.278;2024-02-28T06:54:53;101630.31;;;21.40;35.53
77975;BME280;67164;51.202;0.278;2024-02-28T06:57:19;101633.10;;;20.94;35.53
77975;BME280;67164;51.202;0.278;2024-02-28T06:59:45;101631.69;;;21.12;35.61
77975;BME280;67164;51.202;0.278;2024-02-28T07:02:11;101629.65;;;20.94;35.49
77975;BME280;67164;51.202;0.278;2024-02-28T07:04:38;101629.40;;;20.88;35.41
77975;BME280;67164;51.202;0.278;2024-02-28T07:07:03;101631.47;;;21.03;35.45
77975;BME280;67164;51.202;0.278;2024-02-28T07:09:28;101627.77;;;21.06;35.58
77975;BME280;67164;51.202;0.278;2024-02-28T07:11:54;101621.47;;;21.28;35.64
77975;BME280;67164;51.202;0.278;2024-02-28T07:14:20;101623.70;;;20.81;35.77
77975;BME280;67164;51.202;0.278;2024-02-28T07:16:46;101623.24;;;20.87;35.58
77975;BME280;67164;51.202;0.278;2024-02-28T07:19:12;101623.73;;;20.61;35.57
77975;BME280;67164;51.202;0.278;2024-02-28T07:21:37;101617.50;;;20.80;35.65
77975;BME280;67164;51.202;0.278;2024-02-28T07:24:04;101619.31;;;20.79;35.72
77975;BME280;67164;51.202;0.278;2024-02-28T07:26:29;101624.17;;;20.77;35.81
77975;BME280;67164;51.202;0.278;2024-02-28T07:28:55;101633.08;;;20.95;35.65
77975;BME280;67164;51.202;0.278;2024-02-28T07:31:21;101634.36;;;20.70;35.94
77975;BME280;67164;51.202;0.278;2024-02-28T07:33:46;101638.72;;;20.58;35.99
77975;BME280;67164;51.202;0.278;2024-02-28T07:36:12;101645.38;;;20.47;35.91
77975;BME280;67164;51.202;0.278;2024-02-28T07:38:38;101644.30;;;21.02;35.91
77975;BME280;67164;51.202;0.278;2024-02-28T07:41:04;101643.14;;;21.10;35.90
77975;BME280;67164;51.202;0.278;2024-02-28T07:43:29;101650.70;;;20.85;35.93
77975;BME280;67164;51.202;0.278;2024-02-28T07:45:55;101651.61;;;20.88;35.90
77975;BME280;67164;51.202;0.278;2024-02-28T07:48:21;101647.30;;;21.21;36.00
77975;BME280;67164;51.202;0.278;2024-02-28T07:50:47;101648.94;;;21.25;36.05
77975;BME280;67164;51.202;0.278;2024-02-28T07:53:13;101652.69;;;21.12;36.07
77975;BME280;67164;51.202;0.278;2024-02-28T07:55:38;101652.80;;;20.99;36.23
77975;BME280;67164;51.202;0.278;2024-02-28T07:58:04;101651.27;;;21.10;36.24
77975;BME280;67164;51.202;0.278;2024-02-28T08:00:30;101651.87;;;21.23;36.40
77975;BME280;67164;51.202;0.278;2024-02-28T08:02:56;101658.99;;;20.98;37.26
77975;BME280;67164;51.202;0.278;2024-02-28T08:05:21;101655.72;;;21.40;37.07
77975;BME280;67164;51.202;0.278;2024-02-28T08:07:47;101658.51;;;21.44;36.89
77975;BME280;67164;51.202;0.278;2024-02-28T08:10:12;101657.77;;;21.14;36.62
77975;BME280;67164;51.202;0.278;2024-02-28T08:12:38;101655.36;;;21.27;36.70
77975;BME280;67164;51.202;0.278;2024-02-28T08:15:04;101664.55;;;21.24;36.72
77975;BME280;67164;51.202;0.278;2024-02-28T08:17:29;101665.43;;;21.42;36.56
77975;BME280;67164;51.202;0.278;2024-02-28T08:19:55;101662.39;;;21.24;36.52
77975;BME280;67164;51.202;0.278;2024-02-28T08:22:20;101664.18;;;21.53;36.50
77975;BME280;67164;51.202;0.278;2024-02-28T08:24:46;101663.40;;;21.76;36.47
77975;BME280;67164;51.202;0.278;2024-02-28T08:27:11;101660.83;;;21.48;36.80
77975;BME280;67164;51.202;0.278;2024-02-28T08:29:40;101665.07;;;21.22;37.28
77975;BME280;67164;51.202;0.278;2024-02-28T08:32:03;101668.12;;;21.24;37.11
77975;BME280;67164;51.202;0.278;2024-02-28T08:34:29;101672.70;;;21.45;37.18
77975;BME280;67164;51.202;0.278;2024-02-28T08:36:55;101675.25;;;21.32;36.96
77975;BME280;67164;51.202;0.278;2024-02-28T08:39:20;101678.27;;;21.09;37.35
77975;BME280;67164;51.202;0.278;2024-02-28T08:41:46;101675.24;;;21.41;37.21
77975;BME280;67164;51.202;0.278;2024-02-28T08:44:12;101675.66;;;21.12;37.35
77975;BME280;67164;51.202;0.278;2024-02-28T08:46:38;101671.45;;;21.26;37.52
77975;BME280;67164;51.202;0.278;2024-02-28T08:49:04;101669.46;;;21.69;37.45
77975;BME280;67164;51.202;0.278;2024-02-28T08:51:29;101667.24;;;21.51;37.56
77975;BME280;67164;51.202;0.278;2024-02-28T08:53:55;101662.90;;;21.67;38.09
77975;BME280;67164;51.202;0.278;2024-02-28T08:56:21;101661.84;;;21.50;38.12
77975;BME280;67164;51.202;0.278;2024-02-28T08:58:47;101657.17;;;21.73;37.75
77975;BME280;67164;51.202;0.278;2024-02-28T09:01:14;101660.52;;;21.61;38.08
77975;BME280;67164;51.202;0.278;2024-02-28T09:03:38;101667.73;;;21.58;38.16
77975;BME280;67164;51.202;0.278;2024-02-28T09:06:04;101669.91;;;21.55;38.67
77975;BME280;67164;51.202;0.278;2024-02-28T09:08:29;101668.95;;;21.72;38.51
77975;BME280;67164;51.202;0.278;2024-02-28T09:10:57;101664.55;;;21.96;38.41
77975;BME280;67164;51.202;0.278;2024-02-28T09:13:23;101667.45;;;21.66;38.35
77975;BME280;67164;51.202;0.278;2024-02-28T09:15:48;101670.89;;;21.65;38.30
77975;BME280;67164;51.202;0.278;2024-02-28T09:18:13;101668.87;;;21.81;38.13
77975;BME280;67164;51.202;0.278;2024-02-28T09:20:38;101668.39;;;21.82;38.04
77975;BME280;67164;51.202;0.278;2024-02-28T09:23:05;101669.13;;;21.90;37.86
77975;BME280;67164;51.202;0.278;2024-02-28T09:25:34;101666.99;;;21.99;37.69
77975;BME280;67164;51.202;0.278;2024-02-28T09:28:02;101664.65;;;22.18;37.45
77975;BME280;67164;51.202;0.278;2024-02-28T09:30:27;101662.59;;;22.01;37.56
77975;BME280;67164;51.202;0.278;2024-02-28T09:32:48;101668.45;;;22.13;37.38
77975;BME280;67164;51.202;0.278;2024-02-28T09:35:13;101671.63;;;22.06;37.43
77975;BME280;67164;51.202;0.278;2024-02-28T09:37:39;101670.81;;;22.13;37.31
77975;BME280;67164;51.202;0.278;2024-02-28T09:40:09;101669.55;;;22.11;37.30
77975;BME280;67164;51.202;0.278;2024-02-28T09:42:32;101671.34;;;22.18;37.20
77975;BME280;67164;51.202;0.278;2024-02-28T09:45:00;101669.40;;;22.16;37.19
77975;BME280;67164;51.202;0.278;2024-02-28T09:47:22;101654.93;;;22.08;37.27
77975;BME280;67164;51.202;0.278;2024-02-28T09:49:50;101651.61;;;21.83;37.25
77975;BME280;67164;51.202;0.278;2024-02-28T09:52:14;101649.98;;;22.10;37.19
77975;BME280;67164;51.202;0.278;2024-02-28T09:54:40;101643.72;;;22.40;37.11
77975;BME280;67164;51.202;0.278;2024-02-28T09:57:05;101642.13;;;22.29;36.94
77975;BME280;67164;51.202;0.278;2024-02-28T09:59:32;101642.98;;;21.96;37.02
77975;BME280;67164;51.202;0.278;2024-02-28T10:01:57;101645.69;;;22.16;37.09
77975;BME280;67164;51.202;0.278;2024-02-28T10:04:24;101652.10;;;22.11;37.21
77975;BME280;67164;51.202;0.278;2024-02-28T10:06:49;101659.69;;;22.28;37.05
77975;BME280;67164;51.202;0.278;2024-02-28T10:09:14;101663.34;;;22.27;36.77
77975;BME280;67164;51.202;0.278;2024-02-28T10:11:41;101660.78;;;22.28;36.75
77975;BME280;67164;51.202;0.278;2024-02-28T10:14:06;101657.08;;;22.61;36.70
77975;BME280;67164;51.202;0.278;2024-02-28T10:16:31;101654.57;;;21.84;37.26
77975;BME280;67164;51.202;0.278;2024-02-28T10:18:57;101649.08;;;22.43;37.19
77975;BME280;67164;51.202;0.278;2024-02-28T10:21:23;101650.89;;;22.27;37.20
77975;BME280;67164;51.202;0.278;2024-02-28T10:23:49;101646.72;;;22.24;37.73
77975;BME280;67164;51.202;0.278;2024-02-28T10:26:15;101648.93;;;21.84;37.84
77975;BME280;67164;51.202;0.278;2024-02-28T10:28:41;101645.45;;;22.43;37.83
77975;BME280;67164;51.202;0.278;2024-02-28T10:31:07;101643.07;;;22.43;37.94
77975;BME280;67164;51.202;0.278;2024-02-28T10:33:32;101638.88;;;22.43;38.02
77975;BME280;67164;51.202;0.278;2024-02-28T10:35:59;101633.99;;;22.53;37.99
77975;BME280;67164;51.202;0.278;2024-02-28T10:38:26;101634.09;;;22.07;37.99
77975;BME280;67164;51.202;0.278;2024-02-28T10:40:51;101634.47;;;22.21;38.11
77975;BME280;67164;51.202;0.278;2024-02-28T10:43:16;101629.84;;;22.10;37.98
77975;BME280;67164;51.202;0.278;2024-02-28T10:45:43;101630.25;;;22.14;37.92
77975;BME280;67164;51.202;0.278;2024-02-28T10:48:07;101629.54;;;22.58;37.68
77975;BME280;67164;51.202;0.278;2024-02-28T10:50:33;101628.62;;;22.68;37.56
77975;BME280;67164;51.202;0.278;2024-02-28T10:53:01;101626.46;;;22.36;37.68
77975;BME280;67164;51.202;0.278;2024-02-28T10:55:24;101625.46;;;22.56;37.71
77975;BME280;67164;51.202;0.278;2024-02-28T10:57:58;101621.54;;;22.71;37.77
77975;BME280;67164;51.202;0.278;2024-02-28T11:00:17;101618.45;;;22.44;37.77
77975;BME280;67164;51.202;0.278;2024-02-28T11:02:41;101614.63;;;22.43;37.74
77975;BME280;67164;51.202;0.278;2024-02-28T11:05:08;101619.03;;;22.79;37.57
77975;BME280;67164;51.202;0.278;2024-02-28T11:07:33;101619.56;;;22.60;37.47
77975;BME280;67164;51.202;0.278;2024-02-28T11:10:05;101619.12;;;22.33;37.45
77975;BME280;67164;51.202;0.278;2024-02-28T11:12:26;101617.64;;;22.37;37.38
77975;BME280;67164;51.202;0.278;2024-02-28T11:14:57;101619.92;;;22.34;37.41
77975;BME280;67164;51.202;0.278;2024-02-28T11:17:25;101618.98;;;22.92;37.26
77975;BME280;67164;51.202;0.278;2024-02-28T11:19:42;101614.29;;;22.80;37.08
77975;BME280;67164;51.202;0.278;2024-02-28T11:22:11;101613.81;;;22.83;37.30
77975;BME280;67164;51.202;0.278;2024-02-28T11:24:34;101606.01;;;22.41;37.23
77975;BME280;67164;51.202;0.278;2024-02-28T11:27:00;101599.21;;;22.82;37.01
77975;BME280;67164;51.202;0.278;2024-02-28T11:29:26;101597.41;;;22.51;37.11
77975;BME280;67164;51.202;0.278;2024-02-28T11:31:52;101591.08;;;22.53;37.10
77975;BME280;67164;51.202;0.278;2024-02-28T11:34:18;101585.57;;;22.45;37.18
77975;BME280;67164;51.202;0.278;2024-02-28T11:36:43;101585.41;;;22.58;37.03
77975;BME280;67164;51.202;0.278;2024-02-28T11:39:09;101587.59;;;22.75;37.13
77975;BME280;67164;51.202;0.278;2024-02-28T11:41:34;101587.33;;;22.57;37.06
77975;BME280;67164;51.202;0.278;2024-02-28T11:44:00;101579.46;;;22.56;37.05
77975;BME280;67164;51.202;0.278;2024-02-28T11:46:26;101576.31;;;22.63;36.99
77975;BME280;67164;51.202;0.278;2024-02-28T11:48:52;101574.69;;;22.59;37.05
77975;BME280;67164;51.202;0.278;2024-02-28T11:51:18;101577.60;;;22.26;37.15
77975;BME280;67164;51.202;0.278;2024-02-28T11:53:44;101571.53;;;22.63;36.97
77975;BME280;67164;51.202;0.278;2024-02-28T11:56:10;101573.91;;;22.61;37.02
77975;BME280;67164;51.202;0.278;2024-02-28T11:58:35;101571.39;;;22.67;36.98
77975;BME280;67164;51.202;0.278;2024-02-28T12:01:01;101560.44;;;22.66;36.97
77975;BME280;67164;51.202;0.278;2024-02-28T12:03:27;101555.67;;;22.52;36.83
77975;BME280;67164;51.202;0.278;2024-02-28T12:05:54;101557.62;;;22.89;36.71
77975;BME280;67164;51.202;0.278;2024-02-28T12:08:19;101546.96;;;22.74;36.92
77975;BME280;67164;51.202;0.278;2024-02-28T12:10:44;101541.49;;;23.03;36.73
77975;BME280;67164;51.202;0.278;2024-02-28T12:13:11;101531.83;;;22.91;36.92
77975;BME280;67164;51.202;0.278;2024-02-28T12:15:36;101528.63;;;22.82;37.10
77975;BME280;67164;51.202;0.278;2024-02-28T12:18:08;101530.38;;;22.94;37.05
77975;BME280;67164;51.202;0.278;2024-02-28T12:20:27;101531.75;;;22.79;37.27
77975;BME280;67164;51.202;0.278;2024-02-28T12:22:53;101528.25;;;22.86;37.26
77975;BME280;67164;51.202;0.278;2024-02-28T12:25:20;101526.33;;;23.09;37.05
77975;BME280;67164;51.202;0.278;2024-02-28T12:27:45;101531.93;;;22.86;37.45
77975;BME280;67164;51.202;0.278;2024-02-28T12:30:11;101530.96;;;22.91;37.42
77975;BME280;67164;51.202;0.278;2024-02-28T12:32:36;101529.12;;;22.54;37.90
77975;BME280;67164;51.202;0.278;2024-02-28T12:35:03;101522.73;;;22.92;37.90
77975;BME280;67164;51.202;0.278;2024-02-28T12:37:28;101519.37;;;22.58;38.09
77975;BME280;67164;51.202;0.278;2024-02-28T12:39:54;101516.15;;;22.61;38.14
77975;BME280;67164;51.202;0.278;2024-02-28T12:42:20;101508.67;;;22.69;38.14